Startpagina
METAR-TAF:

METAR-TAF

Vliegvelden :

Oostende, België

Internationale Luchthaven Oostende-Brugge

breedte: 51-12N, lengte: 002-52E, hoogte: 4 m

Actueel weer

Dit bericht is 28 minuten geleden gemaakt, om 09:20 UTC
Wind 18 kt uit het noordoosten
Temperatuur 11°C
Vochtigheid 54%
Druk 1029 hPa
Zicht 10 km of meer
geen wolken onder 1500 m en geen cumulonimbus

METAR: EBOS 250920Z 05018KT CAVOK 11/02 Q1029 NOSIG

Tijdstip: 10:48 (09:48 UTC)

Verwachting

Dit bericht is 4 uur en het 28 minuten geleden gemaakt, om 05:20 UTC
Verwachting geldig van 25 om 06 UTC tot 26 om 12 UTC
Wind 11 kt uit het noordoosten
Zicht 10 km of meer
geen wolken onder 1500 m en geen cumulonimbus
Kans 30% :
Tijdelijke
van 25 om 11 UTC tot 25 om 18 UTC
Wind 17 kt uit het noordoosten met uitschieters tot 29 kt
Kans 30% :
Tijdelijke
van 26 om 04 UTC tot 26 om 10 UTC
Gebroken wolken op 800 ft

TAF: EBOS 250520Z 2506/2612 05011KT CAVOK PROB30 TEMPO 2511/2518 05017G29KT PROB30 TEMPO 2604/2610 BKN008

Waarnemingen en weersverwachtingen van meer dan 4000 vliegvelden (METAR en TAF).

De beschikbare stations zijn de gele en rode punten op de kaart.

Ga met uw muis naar het station om de naam te zien.

Klik dan om waarnemingen en weersverwachtingen te zien.

kaart wijzigen: klik op de groene knoppen met een zwart kruis om in te zoomen, op de groene knop met een streepje om uit te zoomen of op de groene pijlen voor aangrenzende kaarten.


METAR-TAF: